Time,TemperatureF,DewpointF,PressureIn,WindDirection,WindDirectionDegrees,WindSpeedMPH,WindSpeedGustMPH,Humidity,HourlyPrecipIn,Conditions,Clouds,dailyrainin,SoftwareType,DateUTC
2013-04-15 00:05:00,68.0,62.0,29.96,NW,326,2.0,7.0,82,0.00,,,0.00,weatherlink.com 1.10,2013-04-15 04:05:00,
2013-04-15 00:20:00,67.7,62.0,29.96,NW,305,3.0,6.0,83,0.00,,,0.00,weatherlink.com 1.10,2013-04-15 04:20:00,
2013-04-15 00:35:00,67.4,62.0,29.96,WNW,288,0.0,3.0,84,0.00,,,0.00,weatherlink.com 1.10,2013-04-15 04:35:00,
2013-04-15 00:50:00,66.6,62.0,29.95,WNW,287,0.0,1.0,85,0.00,,,0.00,weatherlink.com 1.10,2013-04-15 04:50:00,
2013-04-15 01:05:00,65.9,62.0,29.94,WNW,288,1.0,1.0,86,0.00,,,0.00,weatherlink.com 1.10,2013-04-15 05:05:00,
2013-04-15 01:20:00,65.2,62.0,29.94,WNW,288,0.0,1.0,88,0.00,,,0.00,weatherlink.com 1.10,2013-04-15 05:20:00,
2013-04-15 01:35:00,64.8,62.0,29.95,WNW,288,0.0,1.0,89,0.00,,,0.00,weatherlink.com 1.10,2013-04-15 05:35:00,
2013-04-15 01:50:00,64.7,62.0,29.95,WSW,256,0.0,1.0,89,0.00,,,0.00,weatherlink.com 1.10,2013-04-15 05:50:00,
2013-04-15 02:05:00,64.5,62.0,29.95,SE,132,0.0,0.0,90,0.00,,,0.00,weatherlink.com 1.10,2013-04-15 06:05:00,
2013-04-15 02:20:00,64.7,62.0,29.95,South,184,2.0,3.0,90,0.00,,,0.00,weatherlink.com 1.10,2013-04-15 06:20:00,
2013-04-15 02:36:00,65.2,62.0,29.95,SE,136,0.0,0.0,89,0.00,,,0.00,weatherlink.com 1.10,2013-04-15 06:36:00,
2013-04-15 02:50:00,65.3,62.0,29.94,SE,132,0.0,0.0,89,0.00,,,0.00,weatherlink.com 1.10,2013-04-15 06:50:00,
2013-04-15 03:05:00,65.5,62.0,29.94,SE,132,0.0,3.0,89,0.00,,,0.00,weatherlink.com 1.10,2013-04-15 07:05:00,
2013-04-15 03:50:00,65.4,62.0,29.94,SSE,168,0.0,0.0,89,0.00,,,0.00,weatherlink.com 1.10,2013-04-15 07:50:00,
2013-04-15 04:05:00,65.5,63.0,29.94,SE,139,0.0,0.0,90,0.00,,,0.00,weatherlink.com 1.10,2013-04-15 08:05:00,
2013-04-15 04:20:00,65.5,63.0,29.94,SSE,152,0.0,0.0,90,0.00,,,0.00,weatherlink.com 1.10,2013-04-15 08:20:00,
2013-04-15 04:35:00,65.7,63.0,29.94,SSE,152,0.0,0.0,90,0.00,,,0.00,weatherlink.com 1.10,2013-04-15 08:35:00,
2013-04-15 04:50:00,65.8,63.0,29.93,SSW,193,0.0,0.0,90,0.00,,,0.00,weatherlink.com 1.10,2013-04-15 08:50:00,
2013-04-15 05:05:00,65.7,63.0,29.94,SSE,160,0.0,0.0,90,0.00,,,0.00,weatherlink.com 1.10,2013-04-15 09:05:00,
2013-04-15 05:20:00,65.9,63.0,29.94,South,190,0.0,0.0,90,0.00,,,0.00,weatherlink.com 1.10,2013-04-15 09:20:00,
2013-04-15 05:35:00,65.8,63.0,29.93,SSE,149,0.0,0.0,90,0.00,,,0.00,weatherlink.com 1.10,2013-04-15 09:35:00,
2013-04-15 05:50:00,65.6,63.0,29.93,SE,132,2.0,4.0,91,0.00,,,0.00,weatherlink.com 1.10,2013-04-15 09:50:00,
2013-04-15 06:05:00,65.6,63.0,29.93,South,174,3.0,4.0,90,0.00,,,0.00,weatherlink.com 1.10,2013-04-15 10:05:00,
2013-04-15 06:20:00,66.0,63.0,29.93,SSE,168,1.0,6.0,89,0.00,,,0.00,weatherlink.com 1.10,2013-04-15 10:20:00,
2013-04-15 06:35:00,66.0,62.0,29.93,SSE,160,2.0,5.0,88,0.00,,,0.00,weatherlink.com 1.10,2013-04-15 10:35:00,
2013-04-15 06:50:00,66.2,63.0,29.94,SSE,158,0.0,4.0,88,0.00,,,0.00,weatherlink.com 1.10,2013-04-15 10:50:00,
2013-04-15 07:05:00,66.4,63.0,29.94,South,170,3.0,5.0,87,0.00,,,0.00,weatherlink.com 1.10,2013-04-15 11:05:00,
2013-04-15 07:20:00,66.8,62.0,29.93,South,177,0.0,4.0,85,0.00,,,0.00,weatherlink.com 1.10,2013-04-15 11:20:00,
2013-04-15 07:35:00,67.0,62.0,29.94,South,186,0.0,4.0,85,0.00,,,0.00,weatherlink.com 1.10,2013-04-15 11:35:00,
2013-04-15 07:50:00,67.3,63.0,29.95,SSE,159,0.0,0.0,85,0.00,,,0.00,weatherlink.com 1.10,2013-04-15 11:50:00,
2013-04-15 08:05:00,67.7,63.0,29.95,SSE,153,0.0,0.0,84,0.00,,,0.00,weatherlink.com 1.10,2013-04-15 12:05:00,
2013-04-15 08:20:00,68.4,63.0,29.96,SE,136,0.0,0.0,83,0.00,,,0.00,weatherlink.com 1.10,2013-04-15 12:20:00,
2013-04-15 08:35:00,69.4,63.0,29.96,SSW,205,0.0,5.0,81,0.00,,,0.00,weatherlink.com 1.10,2013-04-15 12:35:00,
2013-04-15 08:50:00,70.5,64.0,29.96,SSW,205,0.0,4.0,80,0.00,,,0.00,weatherlink.com 1.10,2013-04-15 12:50:00,
2013-04-15 09:20:00,73.1,65.0,29.97,South,174,1.0,4.0,76,0.00,,,0.00,weatherlink.com 1.10,2013-04-15 13:20:00,
2013-04-15 09:36:00,75.5,66.0,29.97,SSE,148,1.0,4.0,73,0.00,,,0.00,weatherlink.com 1.10,2013-04-15 13:36:00,
2013-04-15 09:51:00,77.9,68.0,29.97,East,98,0.0,3.0,71,0.00,,,0.00,weatherlink.com 1.10,2013-04-15 13:51:00,
2013-04-15 10:06:00,79.3,67.0,29.98,ESE,111,1.0,5.0,67,0.00,,,0.00,weatherlink.com 1.10,2013-04-15 14:06:00,
2013-04-15 11:21:00,79.8,68.0,30.00,NE,51,5.0,8.0,67,0.00,,,0.00,weatherlink.com 1.10,2013-04-15 15:21:00,
2013-04-15 11:51:00,81.2,67.0,30.00,NNE,25,2.0,5.0,62,0.00,,,0.00,weatherlink.com 1.10,2013-04-15 15:51:00,
2013-04-15 12:21:00,84.6,68.0,30.00,SE,128,2.0,7.0,57,0.00,,,0.00,weatherlink.com 1.10,2013-04-15 16:21:00,
2013-04-15 12:36:00,83.5,68.0,30.00,North,350,1.0,6.0,60,0.00,,,0.00,weatherlink.com 1.10,2013-04-15 16:36:00,
2013-04-15 12:51:00,86.1,69.0,30.00,SSE,158,3.0,6.0,57,0.00,,,0.00,weatherlink.com 1.10,2013-04-15 16:51:00,
2013-04-15 13:06:00,85.3,69.0,29.99,WSW,238,1.0,7.0,59,0.00,,,0.00,weatherlink.com 1.10,2013-04-15 17:06:00,
2013-04-15 13:21:00,86.6,69.0,29.99,North,351,1.0,5.0,56,0.00,,,0.00,weatherlink.com 1.10,2013-04-15 17:21:00,
2013-04-15 13:36:00,86.3,69.0,29.98,NW,324,3.0,7.0,56,0.00,,,0.00,weatherlink.com 1.10,2013-04-15 17:36:00,
2013-04-15 13:51:00,86.4,69.0,29.98,NW,313,4.0,8.0,57,0.00,,,0.00,weatherlink.com 1.10,2013-04-15 17:51:00,
2013-04-15 14:36:00,88.0,69.0,29.98,NNW,339,3.0,8.0,54,0.00,,,0.00,weatherlink.com 1.10,2013-04-15 18:36:00,
2013-04-15 14:52:00,87.0,69.0,29.97,NE,37,2.0,4.0,55,0.00,,,0.00,weatherlink.com 1.10,2013-04-15 18:52:00,
2013-04-15 15:08:00,87.4,69.0,29.96,NNW,333,3.0,8.0,54,0.00,,,0.00,weatherlink.com 1.10,2013-04-15 19:08:00,
2013-04-15 15:21:00,87.3,69.0,29.96,West,265,1.0,5.0,55,0.00,,,0.00,weatherlink.com 1.10,2013-04-15 19:21:00,
2013-04-15 15:36:00,87.2,69.0,29.95,NNE,12,3.0,6.0,54,0.00,,,0.00,weatherlink.com 1.10,2013-04-15 19:36:00,
2013-04-15 16:06:00,89.5,70.0,29.94,NW,312,3.0,9.0,52,0.00,,,0.00,weatherlink.com 1.10,2013-04-15 20:06:00,
2013-04-15 16:21:00,89.0,69.0,29.93,NNE,31,7.0,10.0,52,0.00,,,0.00,weatherlink.com 1.10,2013-04-15 20:21:00,
2013-04-15 16:36:00,89.3,69.0,29.94,NNE,22,1.0,9.0,51,0.00,,,0.00,weatherlink.com 1.10,2013-04-15 20:36:00,
2013-04-15 16:51:00,89.9,68.0,29.93,NNW,339,4.0,6.0,49,0.00,,,0.00,weatherlink.com 1.10,2013-04-15 20:51:00,
2013-04-15 17:06:00,88.6,68.0,29.93,East,84,3.0,4.0,51,0.00,,,0.00,weatherlink.com 1.10,2013-04-15 21:06:00,
2013-04-15 17:21:00,89.2,69.0,29.93,NW,308,2.0,7.0,51,0.00,,,0.00,weatherlink.com 1.10,2013-04-15 21:21:00,
2013-04-15 17:38:00,89.3,69.0,29.94,NNE,23,4.0,7.0,51,0.00,,,0.00,weatherlink.com 1.10,2013-04-15 21:38:00,
2013-04-15 17:52:00,88.4,67.0,29.94,North,349,1.0,7.0,50,0.00,,,0.00,weatherlink.com 1.10,2013-04-15 21:52:00,
2013-04-15 18:07:00,88.2,68.0,29.95,North,350,0.0,3.0,52,0.00,,,0.00,weatherlink.com 1.10,2013-04-15 22:07:00,
2013-04-15 18:22:00,88.2,68.0,29.95,NNW,340,2.0,5.0,52,0.00,,,0.00,weatherlink.com 1.10,2013-04-15 22:22:00,
2013-04-15 18:37:00,87.9,68.0,29.95,NNW,335,2.0,5.0,52,0.00,,,0.00,weatherlink.com 1.10,2013-04-15 22:37:00,
2013-04-15 18:52:00,88.7,69.0,29.95,NNW,343,3.0,3.0,52,0.00,,,0.00,weatherlink.com 1.10,2013-04-15 22:52:00,
2013-04-15 19:07:00,88.1,68.0,29.96,NNE,22,2.0,4.0,51,0.00,,,0.00,weatherlink.com 1.10,2013-04-15 23:07:00,
2013-04-15 19:22:00,87.2,69.0,29.96,NE,36,1.0,3.0,54,0.00,,,0.00,weatherlink.com 1.10,2013-04-15 23:22:00,
2013-04-15 19:37:00,86.1,69.0,29.97,NE,38,1.0,3.0,56,0.00,,,0.00,weatherlink.com 1.10,2013-04-15 23:37:00,
2013-04-15 19:52:00,85.3,68.0,29.98,NE,41,0.0,1.0,57,0.00,,,0.00,weatherlink.com 1.10,2013-04-15 23:52:00,
2013-04-15 20:07:00,84.3,68.0,29.99,ESE,107,4.0,5.0,59,0.00,,,0.00,weatherlink.com 1.10,2013-04-16 00:07:00,
2013-04-15 20:22:00,84.2,69.0,30.00,East,101,4.0,4.0,61,0.00,,,0.00,weatherlink.com 1.10,2013-04-16 00:22:00,
2013-04-15 20:37:00,83.8,69.0,30.01,ESE,113,2.0,4.0,61,0.00,,,0.00,weatherlink.com 1.10,2013-04-16 00:37:00,
2013-04-15 20:52:00,82.4,72.0,30.01,SSE,153,5.0,11.0,71,0.00,,,0.00,weatherlink.com 1.10,2013-04-16 00:52:00,
2013-04-15 21:07:00,80.8,73.0,30.02,SW,219,2.0,7.0,76,0.00,,,0.00,weatherlink.com 1.10,2013-04-16 01:07:00,
2013-04-15 21:22:00,80.1,72.0,30.03,SSE,166,1.0,5.0,77,0.00,,,0.00,weatherlink.com 1.10,2013-04-16 01:22:00,
2013-04-15 21:37:00,79.5,72.0,30.04,SSE,159,3.0,4.0,78,0.00,,,0.00,weatherlink.com 1.10,2013-04-16 01:37:00,
2013-04-15 21:52:00,79.0,72.0,30.05,SSE,153,3.0,6.0,79,0.00,,,0.00,weatherlink.com 1.10,2013-04-16 01:52:00,
2013-04-15 22:07:00,78.7,72.0,30.05,SSE,163,4.0,5.0,79,0.00,,,0.00,weatherlink.com 1.10,2013-04-16 02:07:00,
2013-04-15 22:22:00,78.5,72.0,30.06,East,97,0.0,4.0,81,0.00,,,0.00,weatherlink.com 1.10,2013-04-16 02:22:00,
2013-04-15 22:37:00,78.0,73.0,30.06,South,174,0.0,3.0,83,0.00,,,0.00,weatherlink.com 1.10,2013-04-16 02:37:00,
2013-04-15 22:52:00,77.1,72.0,30.07,South,173,0.0,5.0,85,0.00,,,0.00,weatherlink.com 1.10,2013-04-16 02:52:00,
2013-04-15 23:07:00,76.6,72.0,30.06,SE,141,0.0,3.0,85,0.00,,,0.00,weatherlink.com 1.10,2013-04-16 03:07:00,
2013-04-15 23:22:00,76.5,72.0,30.07,SSW,193,1.0,2.0,85,0.00,,,0.00,weatherlink.com 1.10,2013-04-16 03:22:00,
2013-04-15 23:37:00,76.1,71.0,30.07,SE,146,3.0,5.0,84,0.00,,,0.00,weatherlink.com 1.10,2013-04-16 03:37:00,
2013-04-15 23:52:00,75.1,71.0,30.06,SE,131,3.0,4.0,87,0.00,,,0.00,weatherlink.com 1.10,2013-04-16 03:52:00,